Time;durP1;ratioP1;P1;durP2;ratioP2;P2;SDS_P1;SDS_P2;PMS_P1;PMS_P2;Temp;Humidity;BMP_temperature;BMP_pressure;BME280_temperature;BME280_humidity;BME280_pressure;Samples;Min_cycle;Max_cycle;Signal;HPM_P1;HPM_P2
2022/11/10 00:01:22;;;;;;;;;4.50;3.25;;;;;;;;4979174;28;45501;-60
2022/11/10 00:03:48;;;;;;;;;4.75;4.00;;;;;;;;4978645;28;45342;-60
2022/11/10 00:06:13;;;;;;;;;5.25;4.00;;;;;;;;4979094;28;45374;-60
2022/11/10 00:08:38;;;;;;;;;7.25;3.00;;;;;;;;4978410;28;45462;-60
2022/11/10 00:11:05;;;;;;;;;5.00;4.00;;;;;;;;4978929;28;46638;-60
2022/11/10 00:13:32;;;;;;;;;6.00;4.00;;;;;;;;4978813;28;45368;-60
2022/11/10 00:18:41;;;;;;;;;3.75;3.75;;;;;;;;4978654;28;45372;-60
2022/11/10 00:21:07;;;;;;;;;4.00;4.00;;;;;;;;4978718;28;46034;-60
2022/11/10 00:23:33;;;;;;;;;5.25;3.00;;;;;;;;4978256;28;45228;-60
2022/11/10 00:25:58;;;;;;;;;4.25;3.00;;;;;;;;4978433;28;45478;-60
2022/11/10 00:28:24;;;;;;;;;4.25;4.00;;;;;;;;4978922;28;45547;-60
2022/11/10 00:30:49;;;;;;;;;5.75;4.00;;;;;;;;4978571;28;45231;-60
2022/11/10 00:33:14;;;;;;;;;9.25;3.00;;;;;;;;4978152;28;45551;-60
2022/11/10 00:35:40;;;;;;;;;6.00;2.25;;;;;;;;4978624;28;45405;-60
2022/11/10 00:38:05;;;;;;;;;3.75;2.00;;;;;;;;4978438;28;45499;-60
2022/11/10 00:40:30;;;;;;;;;2.50;2.50;;;;;;;;4978093;28;46304;-60
2022/11/10 00:42:55;;;;;;;;;5.00;3.25;;;;;;;;4978434;28;45390;-60
2022/11/10 00:45:20;;;;;;;;;8.00;3.25;;;;;;;;4978399;28;45184;-60
2022/11/10 00:47:46;;;;;;;;;9.00;4.25;;;;;;;;4977287;28;45416;-60
2022/11/10 00:50:11;;;;;;;;;4.50;1.75;;;;;;;;4977393;28;46527;-60
2022/11/10 00:52:36;;;;;;;;;3.75;3.00;;;;;;;;4977630;28;45441;-60
2022/11/10 00:55:01;;;;;;;;;3.25;2.75;;;;;;;;4978556;28;45266;-60
2022/11/10 00:57:26;;;;;;;;;2.25;2.25;;;;;;;;4978333;28;45459;-60
2022/11/10 00:59:52;;;;;;;;;2.00;2.00;;;;;;;;4978307;28;46389;-60
2022/11/10 01:02:17;;;;;;;;;8.75;2.25;;;;;;;;4978385;28;45256;-60
2022/11/10 01:04:42;;;;;;;;;3.00;3.00;;;;;;;;4977575;28;45425;-60
2022/11/10 01:07:07;;;;;;;;;4.00;4.00;;;;;;;;4978047;28;46819;-60
2022/11/10 01:09:32;;;;;;;;;4.00;2.00;;;;;;;;4977329;28;45437;-60
2022/11/10 01:11:58;;;;;;;;;5.25;3.00;;;;;;;;4978045;28;45448;-60
2022/11/10 01:14:23;;;;;;;;;4.25;2.75;;;;;;;;4977666;28;45461;-60
2022/11/10 01:16:48;;;;;;;;;4.25;3.25;;;;;;;;4978216;28;45365;-60
2022/11/10 01:19:13;;;;;;;;;5.25;4.00;;;;;;;;4977538;28;46355;-60
2022/11/10 01:21:38;;;;;;;;;4.50;2.00;;;;;;;;4977708;28;45255;-60
2022/11/10 01:24:04;;;;;;;;;5.00;2.00;;;;;;;;4977285;28;45540;-60
2022/11/10 01:26:29;;;;;;;;;4.50;3.00;;;;;;;;4978013;28;45405;-60
2022/11/10 01:28:54;;;;;;;;;2.00;2.00;;;;;;;;4977588;28;46363;-60
2022/11/10 01:31:20;;;;;;;;;3.00;3.00;;;;;;;;4977826;28;45342;-60
2022/11/10 01:33:46;;;;;;;;;4.00;2.75;;;;;;;;4977611;28;45438;-60
2022/11/10 01:36:11;;;;;;;;;3.50;3.00;;;;;;;;4977549;28;45553;-60
2022/11/10 01:38:38;;;;;;;;;2.75;1.00;;;;;;;;4977577;28;46304;-60
2022/11/10 01:41:04;;;;;;;;;2.00;2.00;;;;;;;;4976860;28;45316;-60
2022/11/10 01:43:29;;;;;;;;;3.00;3.00;;;;;;;;4977292;28;45466;-60
2022/11/10 01:45:58;;;;;;;;;3.75;1.25;;;;;;;;4977916;28;45220;-60
2022/11/10 01:48:29;;;;;;;;;2.00;2.00;;;;;;;;4966916;28;45670;-60
2022/11/10 01:50:58;;;;;;;;;3.75;1.25;;;;;;;;4977126;28;45500;-60
2022/11/10 01:53:26;;;;;;;;;3.25;2.00;;;;;;;;4977325;28;45444;-60
2022/11/10 01:55:52;;;;;;;;;3.00;1.00;;;;;;;;4977467;28;45473;-60
2022/11/10 01:58:22;;;;;;;;;4.25;2.75;;;;;;;;4977265;28;46348;-60
2022/11/10 02:00:48;;;;;;;;;2.00;2.00;;;;;;;;4980375;28;45343;-60
2022/11/10 02:03:22;;;;;;;;;3.00;2.00;;;;;;;;4980775;28;45340;-60
2022/11/10 02:05:48;;;;;;;;;3.25;2.75;;;;;;;;4981142;28;45300;-60
2022/11/10 02:08:14;;;;;;;;;7.25;2.00;;;;;;;;4980909;28;46028;-60
2022/11/10 02:10:39;;;;;;;;;6.25;3.00;;;;;;;;4980678;28;45418;-60
2022/11/10 02:13:04;;;;;;;;;5.50;2.50;;;;;;;;4980463;28;45384;-60
2022/11/10 02:15:29;;;;;;;;;4.75;2.50;;;;;;;;4980085;28;45553;-60
2022/11/10 02:17:54;;;;;;;;;4.50;3.00;;;;;;;;4980647;28;45483;-60
2022/11/10 02:20:20;;;;;;;;;4.50;2.75;;;;;;;;4980238;28;45354;-60
2022/11/10 02:22:45;;;;;;;;;9.00;3.25;;;;;;;;4980943;28;45294;-60
2022/11/10 02:25:12;;;;;;;;;1.25;1.25;;;;;;;;4980406;28;45430;-60
2022/11/10 02:27:37;;;;;;;;;3.00;1.75;;;;;;;;4979833;28;45581;-60
2022/11/10 02:30:03;;;;;;;;;4.25;2.00;;;;;;;;4980196;28;45335;-60
2022/11/10 02:32:28;;;;;;;;;2.00;2.00;;;;;;;;4980401;28;45557;-61
2022/11/10 02:34:53;;;;;;;;;5.00;2.75;;;;;;;;4980437;28;45417;-60
2022/11/10 02:37:19;;;;;;;;;5.00;3.00;;;;;;;;4980235;28;46529;-60
2022/11/10 02:39:44;;;;;;;;;4.00;2.00;;;;;;;;4980495;28;45220;-60
2022/11/10 02:42:09;;;;;;;;;5.50;2.50;;;;;;;;4980410;28;45359;-60
2022/11/10 02:44:38;;;;;;;;;7.00;2.75;;;;;;;;4979590;28;45390;-60
2022/11/10 02:47:03;;;;;;;;;4.00;3.00;;;;;;;;4980304;28;45684;-60
2022/11/10 02:49:28;;;;;;;;;4.75;1.50;;;;;;;;4979375;28;45541;-60
2022/11/10 02:51:53;;;;;;;;;4.00;2.25;;;;;;;;4980084;28;45361;-60
2022/11/10 02:54:19;;;;;;;;;6.75;3.00;;;;;;;;4980382;28;45391;-60
2022/11/10 02:56:44;;;;;;;;;4.50;3.75;;;;;;;;4979772;28;47353;-60
2022/11/10 02:59:09;;;;;;;;;5.50;3.00;;;;;;;;4980107;28;45361;-60
2022/11/10 03:01:34;;;;;;;;;1.50;1.50;;;;;;;;4979927;28;45334;-60
2022/11/10 03:04:00;;;;;;;;;3.00;2.00;;;;;;;;4979983;28;45283;-60
2022/11/10 03:06:25;;;;;;;;;7.00;3.00;;;;;;;;4979721;28;46217;-60
2022/11/10 03:08:50;;;;;;;;;5.75;3.00;;;;;;;;4980040;28;45440;-61
2022/11/10 03:11:15;;;;;;;;;2.00;2.00;;;;;;;;4979079;28;45966;-60
2022/11/10 03:13:40;;;;;;;;;3.50;3.50;;;;;;;;4980175;28;45374;-60
2022/11/10 03:16:06;;;;;;;;;4.50;2.00;;;;;;;;4979512;28;45406;-60
2022/11/10 03:18:31;;;;;;;;;2.50;2.00;;;;;;;;4979534;28;45410;-60
2022/11/10 03:20:56;;;;;;;;;6.00;2.00;;;;;;;;4980125;28;45347;-60
2022/11/10 03:23:21;;;;;;;;;8.00;2.75;;;;;;;;4979508;28;45534;-60
2022/11/10 03:25:47;;;;;;;;;5.00;3.00;;;;;;;;4979494;28;45438;-60
2022/11/10 03:28:12;;;;;;;;;4.00;2.25;;;;;;;;4979635;28;45502;-60
2022/11/10 03:30:38;;;;;;;;;3.50;1.75;;;;;;;;4979605;28;45303;-60
2022/11/10 03:33:03;;;;;;;;;4.00;1.50;;;;;;;;4979725;28;45434;-60
2022/11/10 03:35:28;;;;;;;;;2.00;2.00;;;;;;;;4979798;28;45356;-60
2022/11/10 03:37:53;;;;;;;;;3.75;3.25;;;;;;;;4979394;28;45438;-60
2022/11/10 03:40:18;;;;;;;;;3.00;2.75;;;;;;;;4979349;28;45274;-61
2022/11/10 03:42:44;;;;;;;;;6.25;2.50;;;;;;;;4979408;28;45458;-61
2022/11/10 03:45:10;;;;;;;;;5.00;2.00;;;;;;;;4978773;28;47160;-60
2022/11/10 03:47:35;;;;;;;;;3.50;1.00;;;;;;;;4979126;28;45338;-60
2022/11/10 03:50:00;;;;;;;;;4.75;2.00;;;;;;;;4978690;28;45332;-61
2022/11/10 03:52:25;;;;;;;;;2.50;2.50;;;;;;;;4979434;28;45258;-61
2022/11/10 03:54:51;;;;;;;;;6.50;2.00;;;;;;;;4978538;28;45451;-60
2022/11/10 03:57:16;;;;;;;;;4.00;2.00;;;;;;;;4978968;28;45341;-61
2022/11/10 03:59:41;;;;;;;;;3.25;2.00;;;;;;;;4979212;28;45349;-60
2022/11/10 04:02:06;;;;;;;;;1.00;1.00;;;;;;;;4979617;28;45236;-61
2022/11/10 04:09:59;;;;;;;;;3.75;2.00;;;;;;;;4978979;28;45457;-60
2022/11/10 04:17:53;;;;;;;;;3.00;2.00;;;;;;;;4978684;28;45521;-60
2022/11/10 04:20:18;;;;;;;;;3.00;2.00;;;;;;;;4978558;28;45453;-60
2022/11/10 04:25:27;;;;;;;;;5.00;3.00;;;;;;;;4978540;28;45378;-60
2022/11/10 04:27:53;;;;;;;;;2.00;1.75;;;;;;;;4978554;28;45442;-60
2022/11/10 04:30:18;;;;;;;;;5.50;2.00;;;;;;;;4978224;28;45514;-60
2022/11/10 04:32:43;;;;;;;;;4.00;2.00;;;;;;;;4979176;28;45216;-61
2022/11/10 04:35:08;;;;;;;;;4.50;2.00;;;;;;;;4978231;28;45414;-60
2022/11/10 04:37:33;;;;;;;;;5.25;2.50;;;;;;;;4978508;28;45376;-61
2022/11/10 04:39:59;;;;;;;;;4.75;2.00;;;;;;;;4978581;28;45156;-60
2022/11/10 04:42:24;;;;;;;;;4.00;3.00;;;;;;;;4978651;28;45313;-60
2022/11/10 04:44:49;;;;;;;;;6.00;3.00;;;;;;;;4977933;28;46333;-60
2022/11/10 04:47:14;;;;;;;;;2.00;2.00;;;;;;;;4978328;28;45335;-60
2022/11/10 04:49:39;;;;;;;;;6.25;2.00;;;;;;;;4978467;28;45295;-60
2022/11/10 04:52:05;;;;;;;;;5.00;2.25;;;;;;;;4978432;28;45264;-61
2022/11/10 04:54:30;;;;;;;;;5.00;2.75;;;;;;;;4977955;28;45287;-60
2022/11/10 04:56:55;;;;;;;;;76.33;57.67;;;;;;;;4978329;28;45276;-60
2022/11/10 04:59:20;;;;;;;;;4.75;4.00;;;;;;;;4969348;28;45325;-60
2022/11/10 05:01:46;;;;;;;;;3.00;3.00;;;;;;;;4978316;28;45384;-60
2022/11/10 05:04:11;;;;;;;;;6.75;5.00;;;;;;;;4977964;28;45648;-60
2022/11/10 05:06:36;;;;;;;;;4.00;2.00;;;;;;;;4978234;28;45433;-60
2022/11/10 05:09:02;;;;;;;;;5.00;3.50;;;;;;;;4978374;28;45414;-60
2022/11/10 05:11:27;;;;;;;;;5.50;2.50;;;;;;;;4978208;28;45613;-60
2022/11/10 05:13:52;;;;;;;;;5.75;3.00;;;;;;;;4977907;28;46576;-60
2022/11/10 05:16:17;;;;;;;;;5.25;4.50;;;;;;;;4978151;28;45312;-60
2022/11/10 05:18:42;;;;;;;;;2.00;0.00;;;;;;;;4978120;28;45356;-60
2022/11/10 05:21:08;;;;;;;;;5.25;3.00;;;;;;;;4978199;28;45458;-60
2022/11/10 05:23:40;;;;;;;;;6.25;2.50;;;;;;;;4977729;28;45740;-60
2022/11/10 05:26:05;;;;;;;;;14.00;8.75;;;;;;;;4976807;28;45702;-61
2022/11/10 05:28:31;;;;;;;;;4.00;4.00;;;;;;;;4977702;28;45321;-60
2022/11/10 05:30:56;;;;;;;;;7.00;5.50;;;;;;;;4977603;28;45292;-61
2022/11/10 05:33:22;;;;;;;;;5.25;3.00;;;;;;;;4977445;28;46461;-60
2022/11/10 05:35:47;;;;;;;;;4.00;2.00;;;;;;;;4976766;28;45434;-60
2022/11/10 05:38:12;;;;;;;;;3.00;3.00;;;;;;;;4977405;28;45284;-60
2022/11/10 05:40:38;;;;;;;;;6.75;4.75;;;;;;;;4977438;28;45717;-60
2022/11/10 05:43:03;;;;;;;;;7.25;5.25;;;;;;;;4976723;28;45414;-60
2022/11/10 05:45:28;;;;;;;;;8.50;4.00;;;;;;;;4977103;28;45664;-60
2022/11/10 05:47:54;;;;;;;;;5.50;3.00;;;;;;;;4977740;28;45715;-60
2022/11/10 05:50:20;;;;;;;;;5.50;3.75;;;;;;;;4977597;28;45271;-60
2022/11/10 05:52:47;;;;;;;;;10.00;5.25;;;;;;;;4977119;28;45702;-60
2022/11/10 05:55:12;;;;;;;;;6.00;4.75;;;;;;;;4977306;28;45266;-60
2022/11/10 05:57:40;;;;;;;;;7.00;5.00;;;;;;;;4977565;28;45350;-60
2022/11/10 06:00:06;;;;;;;;;7.50;5.00;;;;;;;;4977625;28;45333;-60
2022/11/10 06:02:31;;;;;;;;;3.50;3.00;;;;;;;;4977323;28;45467;-60
2022/11/10 06:04:56;;;;;;;;;7.00;5.00;;;;;;;;4977249;28;45363;-60
2022/11/10 06:07:21;;;;;;;;;6.25;3.25;;;;;;;;4977622;28;45773;-60
2022/11/10 06:09:47;;;;;;;;;6.00;6.00;;;;;;;;4977932;28;45328;-60
2022/11/10 06:12:12;;;;;;;;;3.75;3.00;;;;;;;;4976801;28;47150;-61
2022/11/10 06:14:37;;;;;;;;;7.50;4.00;;;;;;;;4977192;28;45497;-60
2022/11/10 06:17:03;;;;;;;;;4.50;3.25;;;;;;;;4977651;28;45293;-60
2022/11/10 06:19:28;;;;;;;;;7.00;7.00;;;;;;;;4976894;28;45383;-60
2022/11/10 06:21:53;;;;;;;;;9.67;5.00;;;;;;;;4977261;28;45446;-60
2022/11/10 06:24:18;;;;;;;;;8.00;5.00;;;;;;;;4976895;28;45656;-60
2022/11/10 06:26:43;;;;;;;;;21.33;16.00;;;;;;;;4976957;28;45353;-60
2022/11/10 06:29:09;;;;;;;;;17.67;14.33;;;;;;;;4977141;28;45438;-60
2022/11/10 06:31:34;;;;;;;;;8.00;8.00;;;;;;;;4976496;28;45476;-60
2022/11/10 06:34:00;;;;;;;;;5.75;5.00;;;;;;;;4977128;28;45310;-60
2022/11/10 06:36:25;;;;;;;;;4.75;3.00;;;;;;;;4977083;28;45389;-60
2022/11/10 06:38:50;;;;;;;;;6.00;5.75;;;;;;;;4977226;28;45584;-60
2022/11/10 06:41:15;;;;;;;;;6.00;4.25;;;;;;;;4976675;28;46583;-60
2022/11/10 06:43:40;;;;;;;;;7.50;5.00;;;;;;;;4976209;28;45366;-60
2022/11/10 06:46:06;;;;;;;;;9.00;6.00;;;;;;;;4978409;28;45327;-60
2022/11/10 06:48:31;;;;;;;;;19.67;17.67;;;;;;;;4980481;28;45411;-60
2022/11/10 06:51:00;;;;;;;;;17.00;8.00;;;;;;;;4980116;28;45413;-62
2022/11/10 06:53:25;;;;;;;;;6.25;4.50;;;;;;;;4940579;28;45326;-60
2022/11/10 06:55:50;;;;;;;;;11.50;7.25;;;;;;;;4940900;28;45312;-60
2022/11/10 06:58:15;;;;;;;;;8.00;6.00;;;;;;;;4941716;28;45256;-61
2022/11/10 07:00:41;;;;;;;;;7.25;4.00;;;;;;;;4940507;28;46516;-60
2022/11/10 07:03:09;;;;;;;;;8.00;6.00;;;;;;;;4940527;28;45431;-60
2022/11/10 07:05:34;;;;;;;;;11.75;9.00;;;;;;;;4941259;28;45608;-60
2022/11/10 07:08:03;;;;;;;;;28.67;25.00;;;;;;;;4941200;28;45390;-62
2022/11/10 07:10:28;;;;;;;;;13.50;8.00;;;;;;;;4941152;28;46668;-60
2022/11/10 07:13:01;;;;;;;;;8.67;7.67;;;;;;;;4939098;28;45323;-61
2022/11/10 07:15:26;;;;;;;;;11.00;11.00;;;;;;;;4941084;28;45544;-62
2022/11/10 07:17:51;;;;;;;;;9.00;6.00;;;;;;;;4941600;28;45236;-61
2022/11/10 07:20:16;;;;;;;;;9.00;7.67;;;;;;;;4940503;28;45311;-60
2022/11/10 07:22:42;;;;;;;;;5.00;5.00;;;;;;;;4940560;28;45443;-61
2022/11/10 07:25:07;;;;;;;;;9.75;9.00;;;;;;;;4940683;28;45330;-61
2022/11/10 07:27:33;;;;;;;;;7.00;4.00;;;;;;;;4940457;28;45483;-61
2022/11/10 07:29:58;;;;;;;;;8.50;5.25;;;;;;;;4940148;28;46320;-61
2022/11/10 07:32:23;;;;;;;;;14.33;12.00;;;;;;;;4939627;28;45446;-61
2022/11/10 07:34:48;;;;;;;;;4.00;4.00;;;;;;;;4940173;28;45547;-61
2022/11/10 07:37:13;;;;;;;;;6.50;4.00;;;;;;;;4940202;28;45485;-61
2022/11/10 07:39:39;;;;;;;;;7.75;3.75;;;;;;;;4939654;28;46188;-63
2022/11/10 07:42:04;;;;;;;;;5.25;4.00;;;;;;;;4940663;28;45533;-63
2022/11/10 07:44:29;;;;;;;;;9.25;5.75;;;;;;;;4940638;28;45422;-62
2022/11/10 07:46:54;;;;;;;;;7.75;5.25;;;;;;;;4940237;28;45279;-62
2022/11/10 07:49:20;;;;;;;;;5.00;3.25;;;;;;;;4940480;28;45630;-62
2022/11/10 07:51:45;;;;;;;;;6.00;4.75;;;;;;;;4952289;28;45194;-62
2022/11/10 07:54:10;;;;;;;;;6.50;4.00;;;;;;;;4979490;28;45355;-62
2022/11/10 07:56:35;;;;;;;;;5.75;2.00;;;;;;;;4977593;28;45346;-62
2022/11/10 07:59:01;;;;;;;;;8.25;5.00;;;;;;;;4978726;28;45339;-62
2022/11/10 08:01:26;;;;;;;;;3.50;2.75;;;;;;;;4978906;28;45387;-62
2022/11/10 08:03:51;;;;;;;;;5.50;4.75;;;;;;;;4979185;28;45293;-62
2022/11/10 08:06:17;;;;;;;;;8.33;7.00;;;;;;;;4979539;28;45333;-62
2022/11/10 08:08:42;;;;;;;;;6.50;3.25;;;;;;;;4978878;28;46151;-63
2022/11/10 08:11:07;;;;;;;;;6.50;6.50;;;;;;;;4978981;28;45426;-62
2022/11/10 08:13:32;;;;;;;;;7.00;2.00;;;;;;;;4979139;28;45366;-62
2022/11/10 08:15:58;;;;;;;;;6.00;4.00;;;;;;;;4979147;28;45330;-63
2022/11/10 08:18:24;;;;;;;;;4.00;4.00;;;;;;;;4979021;28;45652;-62
2022/11/10 08:20:49;;;;;;;;;4.00;4.00;;;;;;;;4961334;28;45566;-62
2022/11/10 08:23:15;;;;;;;;;5.00;5.00;;;;;;;;4978815;28;45311;-62
2022/11/10 08:25:40;;;;;;;;;5.00;5.00;;;;;;;;4977355;28;45805;-62
2022/11/10 08:28:07;;;;;;;;;6.00;3.00;;;;;;;;4982695;28;45502;-62
2022/11/10 08:30:33;;;;;;;;;2.75;2.75;;;;;;;;4983524;28;45422;-63
2022/11/10 08:33:00;;;;;;;;;5.00;4.00;;;;;;;;4983111;28;46445;-62
2022/11/10 08:35:27;;;;;;;;;8.00;6.75;;;;;;;;4983439;28;45465;-62
2022/11/10 08:37:52;;;;;;;;;9.50;4.75;;;;;;;;4976660;28;46580;-63
2022/11/10 08:40:19;;;;;;;;;6.50;3.25;;;;;;;;4976424;28;45303;-62
2022/11/10 08:42:44;;;;;;;;;13.50;5.00;;;;;;;;4976835;28;45633;-62
2022/11/10 08:45:09;;;;;;;;;10.50;7.00;;;;;;;;4976457;28;45522;-62
2022/11/10 08:47:34;;;;;;;;;8.00;4.00;;;;;;;;4976642;28;45865;-62
2022/11/10 08:50:00;;;;;;;;;5.25;5.25;;;;;;;;4976604;28;45557;-62
2022/11/10 08:52:25;;;;;;;;;12.00;10.00;;;;;;;;4976625;28;45413;-62
2022/11/10 08:54:50;;;;;;;;;9.50;6.50;;;;;;;;4977017;28;45498;-62
2022/11/10 08:57:15;;;;;;;;;8.50;5.25;;;;;;;;4978191;28;46566;-62
2022/11/10 08:59:40;;;;;;;;;9.75;7.50;;;;;;;;4993929;28;45461;-62
2022/11/10 09:02:07;;;;;;;;;5.25;5.00;;;;;;;;4995726;28;45514;-62
2022/11/10 09:04:32;;;;;;;;;8.75;6.00;;;;;;;;4996571;28;45394;-62
2022/11/10 09:06:58;;;;;;;;;6.75;6.00;;;;;;;;4995166;28;45319;-62
2022/11/10 09:09:24;;;;;;;;;8.50;5.50;;;;;;;;4995003;28;45414;-62
2022/11/10 09:11:50;;;;;;;;;8.00;5.75;;;;;;;;4995605;28;45477;-62
2022/11/10 09:14:15;;;;;;;;;11.33;8.67;;;;;;;;4996186;28;45604;-62
2022/11/10 09:16:40;;;;;;;;;8.25;8.00;;;;;;;;4995826;28;45437;-62
2022/11/10 09:19:05;;;;;;;;;13.50;9.00;;;;;;;;4995983;28;45423;-62
2022/11/10 09:21:31;;;;;;;;;6.50;5.00;;;;;;;;4993529;28;45283;-62
2022/11/10 09:23:56;;;;;;;;;5.00;4.00;;;;;;;;4994488;28;45307;-62
2022/11/10 09:26:21;;;;;;;;;8.25;7.00;;;;;;;;4985739;28;45520;-62
2022/11/10 09:28:47;;;;;;;;;5.50;5.50;;;;;;;;4982415;28;45563;-62
2022/11/10 09:31:13;;;;;;;;;3.50;3.50;;;;;;;;4984367;28;45626;-63
2022/11/10 09:33:38;;;;;;;;;5.75;5.50;;;;;;;;4984201;28;46091;-62
2022/11/10 09:36:03;;;;;;;;;6.00;5.00;;;;;;;;4980537;28;45744;-62
2022/11/10 09:38:28;;;;;;;;;5.00;5.00;;;;;;;;4975309;28;45403;-62
2022/11/10 09:41:01;;;;;;;;;9.75;8.25;;;;;;;;4982479;28;45578;-62
2022/11/10 09:43:45;;;;;;;;;7.75;7.75;;;;;;;;4982412;28;45555;-62
2022/11/10 09:46:19;;;;;;;;;5.75;5.00;;;;;;;;4981226;28;47334;-62
2022/11/10 09:48:48;;;;;;;;;8.50;7.75;;;;;;;;4980389;28;45812;-62
2022/11/10 09:51:28;;;;;;;;;12.00;6.00;;;;;;;;4975977;28;45497;-63
2022/11/10 09:54:05;;;;;;;;;8.75;6.50;;;;;;;;4975941;28;45724;-62
2022/11/10 09:56:32;;;;;;;;;7.25;6.25;;;;;;;;4975956;28;46682;-62
2022/11/10 09:58:57;;;;;;;;;6.50;5.00;;;;;;;;4975470;28;45327;-63
2022/11/10 10:01:22;;;;;;;;;5.00;5.00;;;;;;;;4976034;28;45324;-62
2022/11/10 10:03:51;;;;;;;;;8.50;5.00;;;;;;;;4975698;28;45714;-62
2022/11/10 10:06:18;;;;;;;;;24.67;18.67;;;;;;;;4975663;28;47139;-62
2022/11/10 10:08:44;;;;;;;;;8.50;6.00;;;;;;;;4975648;28;45306;-63
2022/11/10 10:11:29;;;;;;;;;5.50;4.00;;;;;;;;4975835;28;45481;-63
2022/11/10 10:14:13;;;;;;;;;6.00;5.50;;;;;;;;4974245;28;45604;-62
2022/11/10 10:16:43;;;;;;;;;4.00;4.00;;;;;;;;4975724;28;46272;-63
2022/11/10 10:19:40;;;;;;;;;4.50;4.50;;;;;;;;4975674;28;45401;-62
2022/11/10 10:22:20;;;;;;;;;6.75;3.75;;;;;;;;4957063;28;45495;-62
2022/11/10 10:24:47;;;;;;;;;4.25;4.00;;;;;;;;4956818;28;45449;-62
2022/11/10 10:27:17;;;;;;;;;4.00;3.00;;;;;;;;4962924;28;45470;-63
2022/11/10 10:29:44;;;;;;;;;6.25;4.50;;;;;;;;4962470;28;45645;-63
2022/11/10 10:32:12;;;;;;;;;10.50;4.00;;;;;;;;4962801;28;45771;-63
2022/11/10 10:34:38;;;;;;;;;3.25;2.75;;;;;;;;4963846;28;45499;-62
2022/11/10 10:37:03;;;;;;;;;6.75;3.75;;;;;;;;4959305;28;45485;-63
2022/11/10 10:39:33;;;;;;;;;3.00;3.00;;;;;;;;4956996;28;45440;-62
2022/11/10 10:41:59;;;;;;;;;5.25;3.50;;;;;;;;4957233;28;45519;-63
2022/11/10 10:44:24;;;;;;;;;4.00;4.00;;;;;;;;4957005;28;45415;-63
2022/11/10 10:46:59;;;;;;;;;4.50;4.50;;;;;;;;4957117;28;46895;-63
2022/11/10 10:49:25;;;;;;;;;6.75;3.75;;;;;;;;4957966;28;45355;-63
2022/11/10 10:52:09;;;;;;;;;4.00;3.75;;;;;;;;4958591;28;45464;-64
2022/11/10 10:54:35;;;;;;;;;6.00;4.25;;;;;;;;4959078;28;45392;-63
2022/11/10 10:57:19;;;;;;;;;5.75;5.00;;;;;;;;4962872;28;45491;-63
2022/11/10 10:59:44;;;;;;;;;3.50;3.50;;;;;;;;4980037;28;45266;-63
2022/11/10 11:02:39;;;;;;;;;4.50;4.50;;;;;;;;4980254;28;45761;-63
2022/11/10 11:05:09;;;;;;;;;5.75;4.25;;;;;;;;4958600;28;45429;-63
2022/11/10 11:07:34;;;;;;;;;5.50;3.25;;;;;;;;4958509;28;46919;-63
2022/11/10 11:10:00;;;;;;;;;9.00;5.00;;;;;;;;4957998;28;45331;-63
2022/11/10 11:12:27;;;;;;;;;5.00;4.00;;;;;;;;4958543;28;45482;-63
2022/11/10 11:15:10;;;;;;;;;4.00;4.00;;;;;;;;4958358;28;45430;-63
2022/11/10 11:17:35;;;;;;;;;5.00;4.00;;;;;;;;4958296;28;45497;-63
2022/11/10 11:20:00;;;;;;;;;9.25;5.00;;;;;;;;4958162;28;45476;-63
2022/11/10 11:22:25;;;;;;;;;14.67;13.67;;;;;;;;4958330;28;45335;-63
2022/11/10 11:25:15;;;;;;;;;21.33;16.67;;;;;;;;4958269;28;45466;-63
2022/11/10 11:27:52;;;;;;;;;6.75;5.00;;;;;;;;4958071;28;46565;-63
2022/11/10 11:30:17;;;;;;;;;5.00;4.00;;;;;;;;4957851;28;45284;-63
2022/11/10 11:33:01;;;;;;;;;6.75;5.00;;;;;;;;4957328;28;45303;-63
2022/11/10 11:35:37;;;;;;;;;5.00;5.00;;;;;;;;4958243;28;45361;-63
2022/11/10 11:38:15;;;;;;;;;6.50;3.50;;;;;;;;4957959;28;45272;-63
2022/11/10 11:40:40;;;;;;;;;6.00;4.00;;;;;;;;4961396;28;45355;-63
2022/11/10 11:43:23;;;;;;;;;2.50;2.50;;;;;;;;4979799;28;45362;-63
2022/11/10 11:45:54;;;;;;;;;3.25;2.00;;;;;;;;4979668;28;45439;-63
2022/11/10 11:48:19;;;;;;;;;6.50;3.00;;;;;;;;4979306;28;46344;-63
2022/11/10 11:50:54;;;;;;;;;5.75;3.50;;;;;;;;4979330;28;45228;-63
2022/11/10 11:53:38;;;;;;;;;4.50;2.00;;;;;;;;4979465;28;45243;-63
2022/11/10 11:56:03;;;;;;;;;5.00;3.25;;;;;;;;4979704;28;45331;-63
2022/11/10 11:58:50;;;;;;;;;2.75;2.50;;;;;;;;4961556;28;47399;-63
2022/11/10 12:01:15;;;;;;;;;11.33;9.67;;;;;;;;4979081;28;45292;-63
2022/11/10 12:03:53;;;;;;;;;4.25;4.00;;;;;;;;4979551;28;45224;-63
2022/11/10 12:06:18;;;;;;;;;11.25;6.75;;;;;;;;4979607;28;45441;-63
2022/11/10 12:08:43;;;;;;;;;4.25;4.25;;;;;;;;4979151;28;45482;-63
2022/11/10 12:11:27;;;;;;;;;15.33;12.00;;;;;;;;4979160;28;45529;-63
2022/11/10 12:14:02;;;;;;;;;5.75;4.75;;;;;;;;4979466;28;45306;-63
2022/11/10 12:16:29;;;;;;;;;4.50;3.75;;;;;;;;4979326;28;45573;-63
2022/11/10 12:19:00;;;;;;;;;13.00;9.33;;;;;;;;4978905;28;45484;-63
2022/11/10 12:21:37;;;;;;;;;6.50;4.50;;;;;;;;4978956;28;45502;-63
2022/11/10 12:24:03;;;;;;;;;6.75;3.75;;;;;;;;4979198;28;45322;-63
2022/11/10 12:26:31;;;;;;;;;3.75;1.25;;;;;;;;4979150;28;45275;-63
2022/11/10 12:29:14;;;;;;;;;6.75;3.50;;;;;;;;4978869;28;46444;-63
2022/11/10 12:31:41;;;;;;;;;4.25;2.75;;;;;;;;4979050;28;45271;-63
2022/11/10 12:34:09;;;;;;;;;7.50;2.75;;;;;;;;4978836;28;45298;-63
2022/11/10 12:36:36;;;;;;;;;7.00;5.25;;;;;;;;4961388;28;45442;-63
2022/11/10 12:39:16;;;;;;;;;4.25;2.50;;;;;;;;4978762;28;46728;-63
2022/11/10 12:41:45;;;;;;;;;4.75;3.75;;;;;;;;4978782;28;45444;-63
2022/11/10 12:44:28;;;;;;;;;1.75;1.75;;;;;;;;4978593;28;45501;-63
2022/11/10 12:46:59;;;;;;;;;7.75;4.50;;;;;;;;4978730;28;45395;-63
2022/11/10 12:49:31;;;;;;;;;2.00;2.00;;;;;;;;4978569;28;46581;-63
2022/11/10 12:52:05;;;;;;;;;2.50;2.50;;;;;;;;4978612;28;45331;-63
2022/11/10 12:54:30;;;;;;;;;3.00;3.00;;;;;;;;4978709;28;45466;-63
2022/11/10 12:56:59;;;;;;;;;2.00;2.00;;;;;;;;4978927;28;45252;-63
2022/11/10 12:59:33;;;;;;;;;6.00;3.50;;;;;;;;4978348;28;45588;-63
2022/11/10 13:02:01;;;;;;;;;7.75;6.00;;;;;;;;4978469;28;45428;-63
2022/11/10 13:04:26;;;;;;;;;4.25;3.00;;;;;;;;4960684;28;45274;-63
2022/11/10 13:06:54;;;;;;;;;4.25;4.25;;;;;;;;4978700;28;45339;-63
2022/11/10 13:09:22;;;;;;;;;3.50;3.00;;;;;;;;4978252;28;45409;-63
2022/11/10 13:12:05;;;;;;;;;5.50;2.25;;;;;;;;4978542;28;45298;-63
2022/11/10 13:14:30;;;;;;;;;6.25;3.25;;;;;;;;4978413;28;45252;-63
2022/11/10 13:16:56;;;;;;;;;7.50;7.50;;;;;;;;4978445;28;45224;-63
2022/11/10 13:19:24;;;;;;;;;10.00;10.00;;;;;;;;4977898;28;46373;-63
2022/11/10 13:21:49;;;;;;;;;5.00;2.50;;;;;;;;4978387;28;45279;-63
2022/11/10 13:24:34;;;;;;;;;3.50;2.00;;;;;;;;4978339;28;45309;-63
2022/11/10 13:26:59;;;;;;;;;4.00;1.75;;;;;;;;4978214;28;45503;-63
2022/11/10 13:29:42;;;;;;;;;3.00;3.00;;;;;;;;4978060;28;45509;-63
2022/11/10 13:32:07;;;;;;;;;2.75;2.75;;;;;;;;4978147;28;45438;-63
2022/11/10 13:34:33;;;;;;;;;8.25;4.50;;;;;;;;4978026;28;45318;-63
2022/11/10 13:36:58;;;;;;;;;0.50;0.50;;;;;;;;4978295;28;45354;-63
2022/11/10 13:39:33;;;;;;;;;2.25;2.25;;;;;;;;4977866;28;46286;-63
2022/11/10 13:41:59;;;;;;;;;4.75;3.75;;;;;;;;4977917;28;45465;-63
2022/11/10 13:44:26;;;;;;;;;1.75;1.75;;;;;;;;4978172;28;45319;-63
2022/11/10 13:47:07;;;;;;;;;2.25;2.25;;;;;;;;4977891;28;45303;-63
2022/11/10 13:49:38;;;;;;;;;4.25;2.75;;;;;;;;4977746;28;45348;-63
2022/11/10 13:52:09;;;;;;;;;5.50;4.25;;;;;;;;4977565;28;45391;-63
2022/11/10 13:54:52;;;;;;;;;4.00;2.00;;;;;;;;4978146;28;45458;-63
2022/11/10 13:57:23;;;;;;;;;7.75;4.75;;;;;;;;4981577;28;45345;-63
2022/11/10 13:59:54;;;;;;;;;2.00;0.00;;;;;;;;4981013;28;45549;-63
2022/11/10 14:02:31;;;;;;;;;5.25;2.25;;;;;;;;4981114;28;45400;-63
2022/11/10 14:04:57;;;;;;;;;1.75;1.75;;;;;;;;4981077;28;45311;-63
2022/11/10 14:07:22;;;;;;;;;4.50;4.50;;;;;;;;4981433;28;45470;-63
2022/11/10 14:09:50;;;;;;;;;7.00;3.00;;;;;;;;4980801;28;45562;-63
2022/11/10 14:12:15;;;;;;;;;2.50;2.50;;;;;;;;4980984;28;45461;-63
2022/11/10 14:14:50;;;;;;;;;2.25;2.25;;;;;;;;4981128;28;45320;-63
2022/11/10 14:17:22;;;;;;;;;6.75;3.00;;;;;;;;4981174;28;45434;-62
2022/11/10 14:19:47;;;;;;;;;3.50;2.25;;;;;;;;4980869;28;45692;-63
2022/11/10 14:22:20;;;;;;;;;7.00;2.00;;;;;;;;4980718;28;45400;-63
2022/11/10 14:24:45;;;;;;;;;3.25;2.00;;;;;;;;4980813;28;45435;-63
2022/11/10 14:27:14;;;;;;;;;4.75;4.25;;;;;;;;4981069;28;45247;-63
2022/11/10 14:29:41;;;;;;;;;6.75;5.25;;;;;;;;4980606;28;46291;-63
2022/11/10 14:32:14;;;;;;;;;2.75;2.25;;;;;;;;4980673;28;45512;-63
2022/11/10 14:34:44;;;;;;;;;1.25;1.25;;;;;;;;4980760;28;45375;-63
2022/11/10 14:37:12;;;;;;;;;3.00;1.00;;;;;;;;4980916;28;45192;-63
2022/11/10 14:39:39;;;;;;;;;6.75;2.75;;;;;;;;4980665;28;46611;-63
2022/11/10 14:42:05;;;;;;;;;5.00;3.75;;;;;;;;4980653;28;45323;-63
2022/11/10 14:44:31;;;;;;;;;1.50;1.50;;;;;;;;4980576;28;45363;-63
2022/11/10 14:47:11;;;;;;;;;4.25;1.50;;;;;;;;4980662;28;45454;-63
2022/11/10 14:49:36;;;;;;;;;4.00;1.75;;;;;;;;4980219;28;45696;-63
2022/11/10 14:52:02;;;;;;;;;4.50;4.25;;;;;;;;4980162;28;45252;-63
2022/11/10 14:54:28;;;;;;;;;3.00;2.75;;;;;;;;4980758;28;45451;-63
2022/11/10 14:56:55;;;;;;;;;2.25;2.25;;;;;;;;4980517;28;45476;-63
2022/11/10 14:59:21;;;;;;;;;4.50;4.00;;;;;;;;4979922;28;45339;-63